createdAt,value
2019-02-02T00:01:57.716Z,26.68
2019-02-02T00:04:28.899Z,30.97
2019-02-02T00:06:59.013Z,23.75
2019-02-02T00:09:29.543Z,20.92
2019-02-02T00:12:00.581Z,27.07
2019-02-02T00:14:31.206Z,27.10
2019-02-02T00:17:01.657Z,21.48
2019-02-02T00:19:31.200Z,21.48
2019-02-02T00:22:01.507Z,26.02
2019-02-02T00:24:31.889Z,26.40
2019-02-02T00:27:01.901Z,27.15
2019-02-02T00:29:32.086Z,21.75
2019-02-02T00:32:02.245Z,22.32
2019-02-02T00:34:33.690Z,29.00
2019-02-02T00:37:03.997Z,21.75
2019-02-02T00:39:34.049Z,22.60
2019-02-02T00:42:04.962Z,23.98
2019-02-02T00:44:35.397Z,21.73
2019-02-02T00:47:07.172Z,20.10
2019-02-02T00:49:37.053Z,24.95
2019-02-02T00:52:07.379Z,24.52
2019-02-02T00:54:37.430Z,30.20
2019-02-02T00:57:10.505Z,27.85
2019-02-02T00:59:40.917Z,24.15
2019-02-02T01:02:11.003Z,23.60
2019-02-02T01:04:41.613Z,21.35
2019-02-02T01:07:12.813Z,24.67
2019-02-02T01:09:43.026Z,27.32
2019-02-02T01:12:13.057Z,24.37
2019-02-02T01:14:44.245Z,28.65
2019-02-02T01:17:14.840Z,36.03
2019-02-02T01:19:48.332Z,27.48
2019-02-02T01:22:18.568Z,26.62
2019-02-02T01:24:49.649Z,26.52
2019-02-02T01:27:19.990Z,32.20
2019-02-02T01:29:50.468Z,23.38
2019-02-02T01:32:20.627Z,20.55
2019-02-02T01:34:51.241Z,23.38
2019-02-02T01:37:21.811Z,35.20
2019-02-02T01:39:52.311Z,29.23
2019-02-02T01:42:22.289Z,28.80
2019-02-02T01:44:52.715Z,25.52
2019-02-02T01:47:23.123Z,26.07
2019-02-02T01:49:53.100Z,23.47
2019-02-02T01:52:23.261Z,26.52
2019-02-02T01:54:53.240Z,26.73
2019-02-02T01:57:25.398Z,28.80
2019-02-02T01:59:56.016Z,30.60
2019-02-02T02:02:26.495Z,24.27
2019-02-02T02:04:56.954Z,30.45
2019-02-02T02:07:27.328Z,31.25
2019-02-02T02:09:57.390Z,25.20
2019-02-02T02:12:27.644Z,24.98
2019-02-02T02:14:57.742Z,33.85
2019-02-02T02:17:28.439Z,27.22
2019-02-02T02:19:58.761Z,29.32
2019-02-02T02:22:40.846Z,22.50
2019-02-02T02:25:04.520Z,27.60
2019-02-02T02:27:35.413Z,25.97
2019-02-02T02:30:06.727Z,29.95
2019-02-02T02:32:36.557Z,26.20
2019-02-02T02:35:06.982Z,26.73
2019-02-02T02:37:37.139Z,32.38
2019-02-02T02:40:09.062Z,25.95
2019-02-02T02:42:39.381Z,28.80
2019-02-02T02:45:20.476Z,33.55
2019-02-02T02:47:50.730Z,27.98
2019-02-02T02:50:21.724Z,28.65
2019-02-02T02:55:27.658Z,25.82
2019-02-02T02:57:58.363Z,26.87
2019-02-02T03:00:28.651Z,25.08
2019-02-02T03:02:58.927Z,28.17
2019-02-02T03:05:29.390Z,24.47
2019-02-02T03:07:59.972Z,31.45
2019-02-02T03:10:30.216Z,25.05
2019-02-02T03:13:00.699Z,31.37
2019-02-02T03:15:30.596Z,25.88
2019-02-02T03:18:01.059Z,26.93
2019-02-02T03:20:31.126Z,28.95
2019-02-02T03:23:00.683Z,34.50
2019-02-02T03:25:30.799Z,31.45
2019-02-02T03:28:00.828Z,35.45
2019-02-02T03:30:30.566Z,30.48
2019-02-02T03:33:01.211Z,30.08
2019-02-02T03:35:31.365Z,27.13
2019-02-02T03:38:01.663Z,28.60
2019-02-02T03:40:31.836Z,33.67
2019-02-02T03:43:01.896Z,25.60
2019-02-02T03:45:32.170Z,28.80
2019-02-02T03:48:02.259Z,27.13
2019-02-02T03:50:32.837Z,32.23
2019-02-02T03:53:02.958Z,37.40
2019-02-02T03:55:33.147Z,33.65
2019-02-02T03:58:03.402Z,30.05
2019-02-02T04:00:33.321Z,32.13
2019-02-02T04:03:03.721Z,26.42
2019-02-02T04:05:34.271Z,31.82
2019-02-02T04:08:04.524Z,33.10
2019-02-02T04:10:35.023Z,27.62
2019-02-02T04:13:07.653Z,30.95
2019-02-02T04:15:38.873Z,39.18
2019-02-02T04:18:09.190Z,30.12
2019-02-02T04:20:39.533Z,43.05
2019-02-02T04:23:13.850Z,43.78
2019-02-02T04:25:44.129Z,36.88
2019-02-02T04:28:14.262Z,37.85
2019-02-02T04:30:44.527Z,47.45
2019-02-02T04:33:14.797Z,36.25
2019-02-02T04:35:45.607Z,37.05
2019-02-02T04:38:15.790Z,38.28
2019-02-02T04:40:46.233Z,31.97
2019-02-02T04:43:16.507Z,32.98
2019-02-02T04:45:55.783Z,34.05
2019-02-02T04:48:28.992Z,34.30
2019-02-02T04:50:58.764Z,41.95
2019-02-02T04:53:29.007Z,37.05
2019-02-02T04:55:59.517Z,34.35
2019-02-02T04:58:29.653Z,33.53
2019-02-02T05:01:00.547Z,37.40
2019-02-02T05:03:31.461Z,32.83
2019-02-02T05:06:01.707Z,36.28
2019-02-02T05:08:32.271Z,47.45
2019-02-02T05:11:02.569Z,36.10
2019-02-02T05:13:32.998Z,34.33
2019-02-02T05:16:03.191Z,35.17
2019-02-02T05:18:33.914Z,31.45
2019-02-02T05:21:04.056Z,32.38
2019-02-02T05:23:34.026Z,35.85
2019-02-02T05:26:03.913Z,37.10
2019-02-02T05:28:34.284Z,36.25
2019-02-02T05:31:05.194Z,40.43
2019-02-02T05:33:34.987Z,39.63
2019-02-02T05:36:05.115Z,34.00
2019-02-02T05:38:35.044Z,29.92
2019-02-02T05:41:05.457Z,33.83
2019-02-02T05:43:35.648Z,32.10
2019-02-02T05:46:06.090Z,33.90
2019-02-02T05:48:36.326Z,28.38
2019-02-02T05:51:06.544Z,29.87
2019-02-02T05:53:37.264Z,39.48
2019-02-02T05:56:07.804Z,31.25
2019-02-02T05:58:46.985Z,35.10
2019-02-02T06:01:19.863Z,32.10
2019-02-02T06:03:49.973Z,32.63
2019-02-02T06:06:24.821Z,35.80
2019-02-02T06:08:54.817Z,34.35
2019-02-02T06:11:25.311Z,31.15
2019-02-02T06:14:01.227Z,30.57
2019-02-02T06:16:31.169Z,31.45
2019-02-02T06:19:01.032Z,30.62
2019-02-02T06:21:31.019Z,34.95
2019-02-02T06:24:02.347Z,36.85
2019-02-02T06:26:32.222Z,37.23
2019-02-02T06:29:02.174Z,36.05
2019-02-02T06:31:31.866Z,36.75
2019-02-02T06:34:01.483Z,34.13
2019-02-02T06:36:31.000Z,40.70
2019-02-02T06:39:00.665Z,34.13
2019-02-02T06:41:30.406Z,36.93
2019-02-02T06:44:00.069Z,38.70
2019-02-02T06:46:29.818Z,41.05
2019-02-02T06:49:01.413Z,33.25
2019-02-02T06:51:31.144Z,34.20
2019-02-02T06:54:00.588Z,40.30
2019-02-02T06:56:30.661Z,44.20
2019-02-02T06:59:00.209Z,36.23
2019-02-02T07:01:30.020Z,46.18
2019-02-02T07:03:59.725Z,41.73
2019-02-02T07:06:29.534Z,43.08
2019-02-02T07:08:59.350Z,39.15
2019-02-02T07:11:28.931Z,38.55
2019-02-02T07:13:58.860Z,46.85
2019-02-02T07:16:28.499Z,37.55
2019-02-02T07:18:58.393Z,38.02
2019-02-02T07:21:28.140Z,42.75
2019-02-02T07:23:58.021Z,43.17
2019-02-02T07:26:27.610Z,48.55
2019-02-02T07:28:57.430Z,40.95
2019-02-02T07:31:27.063Z,43.73
2019-02-02T07:33:56.635Z,48.08
2019-02-02T07:36:26.467Z,48.13
2019-02-02T07:38:56.253Z,47.62
2019-02-02T07:41:26.339Z,42.23
2019-02-02T07:43:55.750Z,40.58
2019-02-02T07:46:25.503Z,43.45
2019-02-02T07:48:55.023Z,38.35
2019-02-02T07:51:24.967Z,45.55
2019-02-02T07:53:54.661Z,46.18
2019-02-02T07:56:24.666Z,48.85
2019-02-02T07:58:54.128Z,48.30
2019-02-02T08:01:24.139Z,49.10
2019-02-02T08:03:53.637Z,47.08
2019-02-02T08:06:23.578Z,49.65
2019-02-02T08:08:53.156Z,46.95
2019-02-02T08:11:22.859Z,40.83
2019-02-02T08:13:52.506Z,48.30
2019-02-02T08:16:22.263Z,57.13
2019-02-02T08:18:51.987Z,42.38
2019-02-02T08:21:21.599Z,51.50
2019-02-02T08:23:51.204Z,40.03
2019-02-02T08:26:21.181Z,42.75
2019-02-02T08:28:50.729Z,42.85
2019-02-02T08:31:20.653Z,44.15
2019-02-02T08:33:50.575Z,39.40
2019-02-02T08:36:20.457Z,51.05
2019-02-02T08:38:50.069Z,45.48
2019-02-02T08:41:19.859Z,46.40
2019-02-02T08:43:49.477Z,47.20
2019-02-02T08:46:19.526Z,58.55
2019-02-02T08:48:49.377Z,47.45
2019-02-02T08:51:19.259Z,48.38
2019-02-02T08:53:49.255Z,42.95
2019-02-02T08:56:19.088Z,50.50
2019-02-02T08:58:48.676Z,45.40
2019-02-02T09:01:18.548Z,52.53
2019-02-02T09:03:48.073Z,39.53
2019-02-02T09:06:17.751Z,42.15
2019-02-02T09:08:47.380Z,43.17
2019-02-02T09:11:17.338Z,46.53
2019-02-02T09:13:46.655Z,47.80
2019-02-02T09:16:16.410Z,49.03
2019-02-02T09:18:46.198Z,47.00
2019-02-02T09:21:15.940Z,44.45
2019-02-02T09:23:45.475Z,43.63
2019-02-02T09:26:15.895Z,44.20
2019-02-02T09:28:45.776Z,43.45
2019-02-02T09:31:16.249Z,48.23
2019-02-02T09:33:46.169Z,44.90
2019-02-02T09:36:16.853Z,47.33
2019-02-02T09:38:47.588Z,45.08
2019-02-02T09:41:17.427Z,39.78
2019-02-02T09:43:47.288Z,47.27
2019-02-02T09:46:17.299Z,47.90
2019-02-02T09:48:46.919Z,56.13
2019-02-02T09:51:16.717Z,42.85
2019-02-02T09:53:46.323Z,49.30
2019-02-02T09:56:16.131Z,56.18
2019-02-02T09:58:45.896Z,49.60
2019-02-02T10:01:27.169Z,53.50
2019-02-02T10:03:47.218Z,57.35
2019-02-02T10:06:16.855Z,57.95
2019-02-02T10:08:46.420Z,48.92
2019-02-02T10:11:16.328Z,49.60
2019-02-02T10:13:46.376Z,47.98
2019-02-02T10:16:16.374Z,52.90
2019-02-02T10:18:46.013Z,47.08
2019-02-02T10:21:15.675Z,48.08
2019-02-02T10:23:45.654Z,49.27
2019-02-02T10:26:15.499Z,54.93
2019-02-02T10:29:05.819Z,47.00
2019-02-02T10:31:39.685Z,45.12
2019-02-02T10:34:07.048Z,48.23
2019-02-02T10:36:36.676Z,47.20
2019-02-02T10:39:09.174Z,57.70
2019-02-02T10:41:39.242Z,50.60
2019-02-02T10:44:09.184Z,53.02
2019-02-02T10:46:39.174Z,49.80
2019-02-02T10:49:09.183Z,58.68
2019-02-02T10:51:39.170Z,53.33
2019-02-02T10:54:15.258Z,56.28
2019-02-02T10:56:45.175Z,60.50
2019-02-02T10:59:15.051Z,47.25
2019-02-02T11:01:51.062Z,56.30
2019-02-02T11:04:16.187Z,49.53
2019-02-02T11:06:46.180Z,60.98
2019-02-02T11:09:16.395Z,60.00
2019-02-02T11:11:46.616Z,53.95
2019-02-02T11:14:16.982Z,52.40
2019-02-02T11:16:46.636Z,59.95
2019-02-02T11:19:16.695Z,56.45
2019-02-02T11:21:46.330Z,63.50
2019-02-02T11:24:18.951Z,57.08
2019-02-02T11:26:47.929Z,59.27
2019-02-02T11:29:17.934Z,61.60
2019-02-02T11:31:47.575Z,61.85
2019-02-02T11:34:17.326Z,60.08
2019-02-02T11:36:47.448Z,67.92
2019-02-02T11:39:17.220Z,60.25
2019-02-02T11:41:47.107Z,55.83
2019-02-02T11:44:19.821Z,57.90
2019-02-02T11:46:48.584Z,58.87
2019-02-02T11:49:18.354Z,53.30
2019-02-02T11:51:47.927Z,54.10
2019-02-02T11:54:17.469Z,52.83
2019-02-02T11:56:46.860Z,61.00
2019-02-02T11:59:16.973Z,61.28
2019-02-02T12:01:55.618Z,56.28
2019-02-02T12:04:25.516Z,63.68
2019-02-02T12:06:55.127Z,65.28
2019-02-02T12:09:25.352Z,56.65
2019-02-02T12:11:55.463Z,63.45
2019-02-02T12:14:26.712Z,65.85
2019-02-02T12:16:56.945Z,68.25
2019-02-02T12:19:27.406Z,61.05
2019-02-02T12:21:57.679Z,67.60
2019-02-02T12:24:27.529Z,67.32
2019-02-02T12:26:57.290Z,62.83
2019-02-02T12:29:27.055Z,68.20
2019-02-02T12:31:57.119Z,65.62
2019-02-02T12:34:26.965Z,66.60
2019-02-02T12:36:56.536Z,68.62
2019-02-02T12:39:26.566Z,72.37
2019-02-02T12:41:56.986Z,66.15
2019-02-02T12:44:27.050Z,66.72
2019-02-02T12:46:57.424Z,67.10
2019-02-02T12:49:27.123Z,64.07
2019-02-02T12:51:57.138Z,82.88
2019-02-02T12:54:26.649Z,68.83
2019-02-02T12:56:56.691Z,83.40
2019-02-02T12:59:26.167Z,78.17
2019-02-02T13:01:56.081Z,75.47
2019-02-02T13:04:25.964Z,77.20
2019-02-02T13:06:56.360Z,83.65
2019-02-02T13:09:26.206Z,81.00
2019-02-02T13:11:56.296Z,95.28
2019-02-02T13:14:26.252Z,81.57
2019-02-02T13:16:59.758Z,88.87
2019-02-02T13:19:28.023Z,82.40
2019-02-02T13:21:57.762Z,85.35
2019-02-02T13:24:27.848Z,86.40
2019-02-02T13:26:57.642Z,85.70
2019-02-02T13:29:27.768Z,83.78
2019-02-02T13:31:57.532Z,77.37
2019-02-02T13:34:27.650Z,88.52
2019-02-02T13:36:57.886Z,83.42
2019-02-02T13:39:27.888Z,82.00
2019-02-02T13:41:57.646Z,93.82
2019-02-02T13:44:27.461Z,78.50
2019-02-02T13:46:57.290Z,76.25
2019-02-02T13:49:26.888Z,87.70
2019-02-02T13:51:56.805Z,80.17
2019-02-02T13:54:27.015Z,79.37
2019-02-02T13:56:56.748Z,85.90
2019-02-02T13:59:26.539Z,80.57
2019-02-02T14:01:56.091Z,96.37
2019-02-02T14:04:25.841Z,93.05
2019-02-02T14:06:55.564Z,87.20
2019-02-02T14:09:25.492Z,84.55
2019-02-02T14:11:55.126Z,82.90
2019-02-02T14:14:24.698Z,81.10
2019-02-02T14:16:54.486Z,84.28
2019-02-02T14:19:24.499Z,92.78
2019-02-02T14:21:54.237Z,78.25
2019-02-02T14:24:24.224Z,80.85
2019-02-02T14:26:53.928Z,84.62
2019-02-02T14:29:23.328Z,72.62
2019-02-02T14:31:53.142Z,79.32
2019-02-02T14:34:22.962Z,86.85
2019-02-02T14:36:52.458Z,75.57
2019-02-02T14:39:22.002Z,83.72
2019-02-02T14:41:51.991Z,85.22
2019-02-02T14:44:21.686Z,84.20
2019-02-02T14:46:51.492Z,85.47
2019-02-02T14:49:21.039Z,78.05
2019-02-02T14:51:50.800Z,78.80
2019-02-02T14:54:20.319Z,76.42
2019-02-02T14:56:50.120Z,80.62
2019-02-02T14:59:20.036Z,82.90
2019-02-02T15:02:05.083Z,75.72
2019-02-02T15:04:34.811Z,94.37
2019-02-02T15:07:04.431Z,84.47
2019-02-02T15:09:34.362Z,83.52
2019-02-02T15:12:03.946Z,84.83
2019-02-02T15:14:34.054Z,85.22
2019-02-02T15:17:03.525Z,79.03
2019-02-02T15:19:33.400Z,74.87
2019-02-02T15:22:02.871Z,87.05
2019-02-02T15:24:32.561Z,87.92
2019-02-02T15:27:02.465Z,83.70
2019-02-02T15:29:32.199Z,92.22
2019-02-02T15:32:02.446Z,85.60
2019-02-02T15:34:31.923Z,87.67
2019-02-02T15:37:01.629Z,93.87
2019-02-02T15:39:31.443Z,85.67
2019-02-02T15:42:01.837Z,77.60
2019-02-02T15:44:31.860Z,72.92
2019-02-02T15:47:01.840Z,82.72
2019-02-02T15:49:31.776Z,89.50
2019-02-02T15:52:01.418Z,83.47
2019-02-02T15:54:31.225Z,87.27
2019-02-02T15:57:00.881Z,91.57
2019-02-02T15:59:30.742Z,80.83
2019-02-02T16:02:00.456Z,81.82
2019-02-02T16:04:30.719Z,89.92
2019-02-02T16:07:01.293Z,78.90
2019-02-02T16:09:31.425Z,81.25
2019-02-02T16:12:01.740Z,84.83
2019-02-02T16:14:32.082Z,87.80
2019-02-02T16:17:02.200Z,87.15
2019-02-02T16:19:32.446Z,91.10
2019-02-02T16:22:02.705Z,94.15
2019-02-02T16:24:33.150Z,100.58
2019-02-02T16:27:03.277Z,91.70
2019-02-02T16:29:33.282Z,93.37
2019-02-02T16:32:03.335Z,97.12
2019-02-02T16:34:33.281Z,101.45
2019-02-02T16:37:03.515Z,91.82
2019-02-02T16:39:34.118Z,90.80
2019-02-02T16:42:04.001Z,91.30
2019-02-02T16:44:33.996Z,87.92
2019-02-02T16:47:04.716Z,98.22
2019-02-02T16:49:35.008Z,95.53
2019-02-02T16:52:05.163Z,96.05
2019-02-02T16:54:35.195Z,97.62
2019-02-02T16:57:05.444Z,103.97
2019-02-02T16:59:36.122Z,87.75
2019-02-02T17:02:07.969Z,95.75
2019-02-02T17:04:37.909Z,90.30
2019-02-02T17:07:07.982Z,92.35
2019-02-02T17:09:37.901Z,94.15
2019-02-02T17:12:08.765Z,88.30
2019-02-02T17:14:39.058Z,83.67
2019-02-02T17:17:09.286Z,85.85
2019-02-02T17:19:39.522Z,104.00
2019-02-02T17:22:09.718Z,90.87
2019-02-02T17:24:39.759Z,100.22
2019-02-02T17:27:09.755Z,91.37
2019-02-02T17:29:39.911Z,89.70
2019-02-02T17:32:10.353Z,88.80
2019-02-02T17:34:40.847Z,97.57
2019-02-02T17:37:10.978Z,101.58
2019-02-02T17:39:41.483Z,81.25
2019-02-02T17:42:11.457Z,90.50
2019-02-02T17:44:41.530Z,96.08
2019-02-02T17:47:11.643Z,92.40
2019-02-02T17:49:41.672Z,101.33
2019-02-02T17:52:11.778Z,94.75
2019-02-02T17:54:42.191Z,93.35
2019-02-02T17:57:12.649Z,80.03
2019-02-02T17:59:42.845Z,94.37
2019-02-02T18:02:13.264Z,96.35
2019-02-02T18:04:43.412Z,90.07
2019-02-02T18:07:13.713Z,93.20
2019-02-02T18:09:47.106Z,95.92
2019-02-02T18:12:18.067Z,103.32
2019-02-02T18:14:48.186Z,93.52
2019-02-02T18:17:18.536Z,93.05
2019-02-02T18:19:48.512Z,92.88
2019-02-02T18:22:18.640Z,91.30
2019-02-02T18:24:48.919Z,99.45
2019-02-02T18:27:19.364Z,93.05
2019-02-02T18:29:49.840Z,86.90
2019-02-02T18:32:19.417Z,94.22
2019-02-02T18:34:51.250Z,97.00
2019-02-02T18:37:21.288Z,110.80
2019-02-02T18:39:52.237Z,96.15
2019-02-02T18:42:22.589Z,90.70
2019-02-02T18:44:52.733Z,87.27
2019-02-02T18:47:22.845Z,95.22
2019-02-02T18:49:52.947Z,95.28
2019-02-02T18:52:23.274Z,92.42
2019-02-02T18:54:53.663Z,92.37
2019-02-02T18:57:23.784Z,86.47
2019-02-02T18:59:54.034Z,75.60
2019-02-02T19:02:24.151Z,83.40
2019-02-02T19:05:03.275Z,80.50
2019-02-02T19:07:26.196Z,80.60
2019-02-02T19:09:56.351Z,78.33
2019-02-02T19:12:26.549Z,92.50
2019-02-02T19:14:57.153Z,70.17
2019-02-02T19:17:27.447Z,86.78
2019-02-02T19:19:57.872Z,79.82
2019-02-02T19:22:28.228Z,75.85
2019-02-02T19:24:58.621Z,75.57
2019-02-02T19:27:28.634Z,89.52
2019-02-02T19:29:58.655Z,80.83
2019-02-02T19:32:28.606Z,86.92
2019-02-02T19:34:58.404Z,90.03
2019-02-02T19:37:28.306Z,86.53
2019-02-02T19:39:57.916Z,87.00
2019-02-02T19:42:27.693Z,75.35
2019-02-02T19:44:58.041Z,82.33
2019-02-02T19:47:28.467Z,81.90
2019-02-02T19:49:58.472Z,89.70
2019-02-02T19:52:28.257Z,78.85
2019-02-02T19:54:58.295Z,76.92
2019-02-02T19:57:28.712Z,77.03
2019-02-02T19:59:58.834Z,77.80
2019-02-02T20:02:28.842Z,78.10
2019-02-02T20:04:58.719Z,72.85
2019-02-02T20:07:30.519Z,73.87
2019-02-02T20:10:00.412Z,79.90
2019-02-02T20:12:30.608Z,76.37
2019-02-02T20:15:00.868Z,84.52
2019-02-02T20:17:30.988Z,76.15
2019-02-02T20:20:01.119Z,91.70
2019-02-02T20:22:32.051Z,98.33
2019-02-02T20:25:02.432Z,95.00
2019-02-02T20:27:32.909Z,93.58
2019-02-02T20:30:17.668Z,88.40
2019-02-02T20:32:47.666Z,101.92
2019-02-02T20:35:17.665Z,86.50
2019-02-02T20:37:47.922Z,99.40
2019-02-02T20:40:19.958Z,90.05
2019-02-02T20:42:50.431Z,93.52
2019-02-02T20:45:22.845Z,84.65
2019-02-02T20:47:53.196Z,95.97
2019-02-02T20:50:23.100Z,85.92
2019-02-02T20:52:53.907Z,87.85
2019-02-02T20:55:29.202Z,94.60
2019-02-02T20:57:59.922Z,95.05
2019-02-02T21:00:30.354Z,88.95
2019-02-02T21:03:01.134Z,90.47
2019-02-02T21:05:32.144Z,89.42
2019-02-02T21:08:02.446Z,93.97
2019-02-02T21:10:32.818Z,88.47
2019-02-02T21:13:03.146Z,87.20
2019-02-02T21:15:33.354Z,90.42
2019-02-02T21:18:03.645Z,83.45
2019-02-02T21:20:34.346Z,88.35
2019-02-02T21:23:05.380Z,86.50
2019-02-02T21:25:35.706Z,94.58
2019-02-02T21:28:06.274Z,90.28
2019-02-02T21:30:36.813Z,97.40
2019-02-02T21:33:07.277Z,93.58
2019-02-02T21:35:37.764Z,93.20
2019-02-02T21:38:07.949Z,86.97
2019-02-02T21:40:37.827Z,86.32
2019-02-02T21:43:09.411Z,83.72
2019-02-02T21:45:40.107Z,93.12
2019-02-02T21:48:10.548Z,91.28
2019-02-02T21:50:42.183Z,94.10
2019-02-02T21:53:12.394Z,88.87
2019-02-02T21:55:42.253Z,98.52
2019-02-02T21:58:13.246Z,88.60
2019-02-02T22:00:44.549Z,83.42
2019-02-02T22:03:15.155Z,87.37
2019-02-02T22:05:45.198Z,87.27
2019-02-02T22:08:15.887Z,82.37
2019-02-02T22:10:46.586Z,87.25
2019-02-02T22:13:16.928Z,90.03
2019-02-02T22:15:47.591Z,84.03
2019-02-02T22:18:18.178Z,93.50
2019-02-02T22:20:48.639Z,94.03
2019-02-02T22:23:19.382Z,105.00
2019-02-02T22:25:49.593Z,92.37
2019-02-02T22:28:20.222Z,82.88
2019-02-02T22:30:51.265Z,100.40
2019-02-02T22:33:22.108Z,112.50
2019-02-02T22:35:52.513Z,114.10
2019-02-02T22:38:22.831Z,111.42
2019-02-02T22:40:53.427Z,124.85
2019-02-02T22:43:23.944Z,121.92
2019-02-02T22:45:54.317Z,124.33
2019-02-02T22:48:24.535Z,123.02
2019-02-02T22:50:54.751Z,113.03
2019-02-02T22:53:25.119Z,113.20
2019-02-02T22:55:55.282Z,106.63
2019-02-02T22:58:26.032Z,106.55
2019-02-02T23:01:27.414Z,110.45
2019-02-02T23:04:06.919Z,112.30
2019-02-02T23:07:16.374Z,121.20
2019-02-02T23:10:31.334Z,113.47
2019-02-02T23:13:14.713Z,118.80
2019-02-02T23:16:24.205Z,108.27
2019-02-02T23:18:55.229Z,115.88
2019-02-02T23:21:26.069Z,125.22
2019-02-02T23:23:56.968Z,106.05
2019-02-02T23:26:27.395Z,136.20
2019-02-02T23:28:57.795Z,143.00
2019-02-02T23:31:27.872Z,131.63
2019-02-02T23:33:58.161Z,119.37
2019-02-02T23:36:28.404Z,135.80
2019-02-02T23:38:58.592Z,121.47
2019-02-02T23:41:28.473Z,127.25
2019-02-02T23:43:58.707Z,121.28
2019-02-02T23:46:28.981Z,120.45
2019-02-02T23:48:58.879Z,120.20
2019-02-02T23:51:29.213Z,121.80
2019-02-02T23:53:59.136Z,121.28
2019-02-02T23:56:30.079Z,126.38
2019-02-02T23:59:00.025Z,130.78
